createdAt,value
2018-12-25T00:01:35.976Z,13.05
2018-12-25T00:04:04.413Z,9.73
2018-12-25T00:06:33.145Z,11.30
2018-12-25T00:09:01.645Z,9.60
2018-12-25T00:11:30.057Z,12.58
2018-12-25T00:13:58.494Z,10.20
2018-12-25T00:16:26.885Z,13.15
2018-12-25T00:18:55.308Z,12.93
2018-12-25T00:21:23.708Z,12.10
2018-12-25T00:23:52.185Z,15.05
2018-12-25T00:26:20.653Z,10.70
2018-12-25T00:28:49.080Z,13.55
2018-12-25T00:31:17.794Z,10.08
2018-12-25T00:33:46.221Z,16.07
2018-12-25T00:36:14.634Z,15.10
2018-12-25T00:38:43.129Z,12.65
2018-12-25T00:41:11.531Z,11.22
2018-12-25T00:43:39.955Z,11.10
2018-12-25T00:46:08.649Z,11.88
2018-12-25T00:48:37.084Z,11.48
2018-12-25T00:51:05.507Z,13.25
2018-12-25T00:53:33.894Z,12.53
2018-12-25T00:56:02.320Z,12.63
2018-12-25T00:58:30.729Z,10.40
2018-12-25T01:00:59.181Z,13.45
2018-12-25T01:03:27.581Z,12.25
2018-12-25T01:05:56.016Z,11.73
2018-12-25T01:08:24.465Z,12.63
2018-12-25T01:10:52.890Z,15.40
2018-12-25T01:13:21.307Z,12.50
2018-12-25T01:15:49.737Z,14.15
2018-12-25T01:18:18.137Z,12.33
2018-12-25T01:20:46.597Z,14.60
2018-12-25T01:23:14.993Z,14.63
2018-12-25T01:25:43.459Z,13.50
2018-12-25T01:28:12.966Z,15.63
2018-12-25T01:30:41.664Z,10.63
2018-12-25T01:33:10.069Z,16.82
2018-12-25T01:35:38.519Z,13.03
2018-12-25T01:38:06.964Z,13.83
2018-12-25T01:40:35.405Z,12.85
2018-12-25T01:43:03.798Z,13.28
2018-12-25T01:45:32.561Z,10.78
2018-12-25T01:48:00.982Z,14.95
2018-12-25T01:50:30.780Z,13.05
2018-12-25T01:52:59.174Z,12.50
2018-12-25T01:55:27.611Z,13.40
2018-12-25T01:57:56.017Z,15.32
2018-12-25T02:00:24.469Z,12.18
2018-12-25T02:02:52.870Z,16.25
2018-12-25T02:05:21.647Z,13.30
2018-12-25T02:07:50.359Z,16.00
2018-12-25T02:10:19.133Z,15.83
2018-12-25T02:12:47.563Z,21.30
2018-12-25T02:15:16.009Z,13.95
2018-12-25T02:17:44.424Z,17.85
2018-12-25T02:20:12.849Z,11.20
2018-12-25T02:22:41.253Z,18.77
2018-12-25T02:25:09.722Z,11.97
2018-12-25T02:27:38.117Z,14.10
2018-12-25T02:30:06.549Z,13.60
2018-12-25T02:32:34.950Z,14.58
2018-12-25T02:35:03.385Z,14.90
2018-12-25T02:37:31.917Z,15.95
2018-12-25T02:40:00.358Z,12.60
2018-12-25T02:42:28.812Z,14.55
2018-12-25T02:44:57.281Z,12.20
2018-12-25T02:47:25.940Z,13.35
2018-12-25T02:49:54.329Z,13.78
2018-12-25T02:52:22.790Z,11.85
2018-12-25T02:54:51.619Z,14.03
2018-12-25T02:57:20.074Z,14.75
2018-12-25T02:59:48.464Z,14.30
2018-12-25T03:02:17.157Z,12.95
2018-12-25T03:04:45.567Z,13.93
2018-12-25T03:07:14.009Z,13.58
2018-12-25T03:09:42.401Z,12.30
2018-12-25T03:12:30.185Z,12.90
2018-12-25T03:14:59.124Z,12.70
2018-12-25T03:17:27.551Z,14.98
2018-12-25T03:19:59.945Z,14.00
2018-12-25T03:22:26.106Z,13.00
2018-12-25T03:24:54.539Z,15.23
2018-12-25T03:27:22.990Z,12.60
2018-12-25T03:29:51.409Z,13.53
2018-12-25T03:32:19.847Z,14.25
2018-12-25T03:34:48.277Z,14.83
2018-12-25T03:37:16.723Z,13.25
2018-12-25T03:39:45.135Z,14.05
2018-12-25T03:42:13.574Z,16.27
2018-12-25T03:44:41.990Z,16.05
2018-12-25T03:47:10.430Z,14.07
2018-12-25T03:49:39.185Z,14.18
2018-12-25T03:52:07.610Z,12.23
2018-12-25T03:54:36.018Z,13.20
2018-12-25T03:57:04.502Z,14.30
2018-12-25T03:59:32.893Z,13.72
2018-12-25T04:02:01.356Z,13.60
2018-12-25T04:04:29.758Z,13.65
2018-12-25T04:06:58.172Z,12.53
2018-12-25T04:09:26.578Z,12.18
2018-12-25T04:11:55.014Z,15.38
2018-12-25T04:14:23.592Z,18.52
2018-12-25T04:16:52.036Z,14.10
2018-12-25T04:19:20.459Z,17.95
2018-12-25T04:21:49.153Z,12.80
2018-12-25T04:24:17.583Z,16.30
2018-12-25T04:26:45.997Z,14.90
2018-12-25T04:29:14.452Z,14.58
2018-12-25T04:31:42.944Z,15.35
2018-12-25T04:34:11.341Z,15.63
2018-12-25T04:36:39.765Z,13.62
2018-12-25T04:39:08.177Z,12.53
2018-12-25T04:41:36.819Z,17.95
2018-12-25T04:44:05.253Z,22.27
2018-12-25T04:46:33.645Z,16.65
2018-12-25T04:49:02.105Z,17.10
2018-12-25T04:51:30.502Z,15.65
2018-12-25T04:53:58.944Z,15.38
2018-12-25T04:56:27.366Z,19.82
2018-12-25T04:58:55.804Z,12.63
2018-12-25T05:01:24.205Z,14.83
2018-12-25T05:03:52.633Z,12.70
2018-12-25T05:06:21.081Z,15.63
2018-12-25T05:08:49.564Z,16.25
2018-12-25T05:11:18.003Z,13.48
2018-12-25T05:13:46.473Z,11.80
2018-12-25T05:16:14.904Z,17.23
2018-12-25T05:18:43.332Z,14.75
2018-12-25T05:21:12.038Z,13.83
2018-12-25T05:23:40.517Z,16.57
2018-12-25T05:26:08.934Z,14.00
2018-12-25T05:28:37.370Z,13.80
2018-12-25T05:31:05.770Z,16.40
2018-12-25T05:33:34.210Z,17.92
2018-12-25T05:36:02.614Z,12.85
2018-12-25T05:38:31.032Z,15.10
2018-12-25T05:40:59.427Z,13.75
2018-12-25T05:43:27.829Z,13.00
2018-12-25T05:45:56.265Z,19.10
2018-12-25T05:48:25.225Z,17.77
2018-12-25T05:50:53.911Z,14.98
2018-12-25T05:53:22.317Z,14.80
2018-12-25T05:55:50.743Z,15.80
2018-12-25T05:58:19.190Z,16.90
2018-12-25T06:00:47.614Z,16.32
2018-12-25T06:03:16.312Z,13.50
2018-12-25T06:05:44.753Z,15.08
2018-12-25T06:08:13.169Z,13.95
2018-12-25T06:10:41.593Z,16.57
2018-12-25T06:13:10.010Z,17.67
2018-12-25T06:15:38.412Z,15.28
2018-12-25T06:18:06.849Z,18.55
2018-12-25T06:20:35.593Z,20.30
2018-12-25T06:23:04.032Z,16.73
2018-12-25T06:25:32.446Z,16.55
2018-12-25T06:28:00.850Z,14.90
2018-12-25T06:30:29.250Z,17.40
2018-12-25T06:32:58.001Z,18.00
2018-12-25T06:35:26.434Z,16.87
2018-12-25T06:37:54.937Z,16.27
2018-12-25T06:40:23.353Z,18.30
2018-12-25T06:42:51.793Z,16.07
2018-12-25T06:45:20.185Z,17.92
2018-12-25T06:47:48.630Z,15.65
2018-12-25T06:50:17.034Z,16.45
2018-12-25T06:52:45.447Z,13.13
2018-12-25T06:55:13.849Z,17.30
2018-12-25T06:57:42.271Z,20.00
2018-12-25T07:00:10.673Z,14.70
2018-12-25T07:02:39.383Z,12.73
2018-12-25T07:05:07.796Z,20.52
2018-12-25T07:07:36.577Z,14.70
2018-12-25T07:10:05.589Z,17.57
2018-12-25T07:12:34.374Z,17.73
2018-12-25T07:15:04.225Z,16.02
2018-12-25T07:17:32.626Z,20.05
2018-12-25T07:20:01.037Z,16.85
2018-12-25T07:22:29.449Z,17.23
2018-12-25T07:24:57.898Z,13.55
2018-12-25T07:27:26.317Z,16.90
2018-12-25T07:29:54.783Z,16.17
2018-12-25T07:32:23.184Z,19.85
2018-12-25T07:34:51.580Z,17.30
2018-12-25T07:37:19.989Z,21.73
2018-12-25T07:39:48.459Z,21.50
2018-12-25T07:42:16.910Z,20.48
2018-12-25T07:44:45.321Z,21.12
2018-12-25T07:47:13.729Z,18.07
2018-12-25T07:49:42.141Z,18.00
2018-12-25T07:52:10.543Z,19.40
2018-12-25T07:54:38.961Z,19.23
2018-12-25T07:57:07.390Z,20.62
2018-12-25T07:59:35.801Z,19.87
2018-12-25T08:02:04.506Z,18.20
2018-12-25T08:04:32.979Z,20.17
2018-12-25T08:07:01.405Z,16.70
2018-12-25T08:09:30.150Z,16.40
2018-12-25T08:11:58.578Z,17.17
2018-12-25T08:14:26.992Z,18.17
2018-12-25T08:16:55.763Z,17.95
2018-12-25T08:19:24.229Z,19.37
2018-12-25T08:21:52.706Z,17.30
2018-12-25T08:24:21.162Z,18.80
2018-12-25T08:26:49.565Z,15.08
2018-12-25T08:29:17.995Z,16.57
2018-12-25T08:31:46.417Z,16.00
2018-12-25T08:34:14.855Z,18.27
2018-12-25T08:36:43.297Z,12.43
2018-12-25T08:39:14.380Z,14.53
2018-12-25T08:41:42.841Z,15.20
2018-12-25T08:44:11.518Z,20.85
2018-12-25T08:46:39.923Z,16.70
2018-12-25T08:49:08.471Z,14.63
2018-12-25T08:51:37.830Z,20.15
2018-12-25T08:54:06.568Z,14.65
2018-12-25T08:56:34.969Z,12.23
2018-12-25T08:59:03.383Z,13.22
2018-12-25T09:01:31.795Z,15.43
2018-12-25T09:04:00.212Z,12.50
2018-12-25T09:06:28.625Z,15.35
2018-12-25T09:08:57.064Z,14.58
2018-12-25T09:11:25.483Z,18.95
2018-12-25T09:13:53.889Z,14.58
2018-12-25T09:16:22.652Z,14.98
2018-12-25T09:18:51.083Z,15.28
2018-12-25T09:21:19.506Z,12.63
2018-12-25T09:23:47.931Z,14.75
2018-12-25T09:26:16.327Z,14.13
2018-12-25T09:28:44.750Z,18.55
2018-12-25T09:31:13.163Z,16.60
2018-12-25T09:33:41.565Z,14.80
2018-12-25T09:36:09.971Z,12.82
2018-12-25T09:38:38.399Z,13.10
2018-12-25T09:41:06.810Z,16.85
2018-12-25T09:43:35.222Z,14.47
2018-12-25T09:46:03.637Z,15.83
2018-12-25T09:48:32.066Z,18.12
2018-12-25T09:51:00.497Z,14.68
2018-12-25T09:53:28.918Z,13.32
2018-12-25T09:55:57.320Z,13.35
2018-12-25T09:58:25.761Z,12.55
2018-12-25T10:00:54.517Z,13.85
2018-12-25T10:03:22.925Z,11.78
2018-12-25T10:05:51.353Z,13.85
2018-12-25T10:08:19.789Z,12.58
2018-12-25T10:10:48.238Z,9.93
2018-12-25T10:13:16.643Z,14.38
2018-12-25T10:15:45.044Z,13.28
2018-12-25T10:18:13.482Z,36.50
2018-12-25T10:20:41.926Z,14.60
2018-12-25T10:23:10.363Z,16.70
2018-12-25T10:25:39.056Z,14.30
2018-12-25T10:28:07.829Z,13.32
2018-12-25T10:30:36.541Z,13.85
2018-12-25T10:33:04.983Z,13.32
2018-12-25T10:35:33.409Z,13.25
2018-12-25T10:38:01.879Z,14.53
2018-12-25T10:40:30.301Z,12.90
2018-12-25T10:42:58.701Z,13.55
2018-12-25T10:45:27.117Z,11.50
2018-12-25T10:47:55.542Z,14.00
2018-12-25T10:50:23.953Z,14.20
2018-12-25T10:52:52.385Z,12.82
2018-12-25T10:55:21.144Z,14.40
2018-12-25T10:57:49.574Z,11.60
2018-12-25T11:00:18.031Z,11.88
2018-12-25T11:02:46.491Z,11.10
2018-12-25T11:05:14.915Z,12.43
2018-12-25T11:07:43.307Z,11.75
2018-12-25T11:10:11.721Z,12.73
2018-12-25T11:12:40.154Z,12.55
2018-12-25T11:15:08.897Z,13.08
2018-12-25T11:17:37.296Z,13.80
2018-12-25T11:20:11.372Z,9.85
2018-12-25T11:22:35.936Z,8.28
2018-12-25T11:25:04.580Z,10.65
2018-12-25T11:27:32.986Z,10.58
2018-12-25T11:30:01.391Z,11.08
2018-12-25T11:32:29.835Z,12.20
2018-12-25T11:34:58.260Z,9.53
2018-12-25T11:37:26.763Z,14.43
2018-12-25T11:39:55.181Z,12.10
2018-12-25T11:42:23.645Z,14.63
2018-12-25T11:44:52.074Z,12.35
2018-12-25T11:47:20.448Z,9.93
2018-12-25T11:49:48.842Z,9.53
2018-12-25T11:52:17.329Z,10.93
2018-12-25T11:54:45.765Z,11.18
2018-12-25T11:57:14.280Z,13.90
2018-12-25T11:59:42.718Z,13.38
2018-12-25T12:02:16.988Z,10.72
2018-12-25T12:04:41.248Z,10.18
2018-12-25T12:07:09.999Z,11.90
2018-12-25T12:09:38.457Z,10.05
2018-12-25T12:12:06.913Z,10.43
2018-12-25T12:14:35.334Z,10.63
2018-12-25T12:17:04.135Z,15.03
2018-12-25T12:19:32.573Z,10.03
2018-12-25T12:22:00.992Z,11.35
2018-12-25T12:24:29.384Z,9.15
2018-12-25T12:26:57.805Z,10.08
2018-12-25T12:29:26.201Z,9.28
2018-12-25T12:31:54.646Z,9.78
2018-12-25T12:34:23.028Z,8.93
2018-12-25T12:36:51.459Z,10.05
2018-12-25T12:39:19.879Z,8.88
2018-12-25T12:41:48.292Z,9.15
2018-12-25T12:44:16.696Z,8.53
2018-12-25T12:46:45.096Z,9.33
2018-12-25T12:49:13.499Z,9.65
2018-12-25T12:51:41.916Z,7.10
2018-12-25T12:54:10.331Z,9.50
2018-12-25T12:56:38.766Z,10.20
2018-12-25T12:59:07.173Z,10.78
2018-12-25T13:01:35.592Z,8.68
2018-12-25T13:04:04.006Z,7.95
2018-12-25T13:06:32.412Z,6.75
2018-12-25T13:09:00.820Z,7.85
2018-12-25T13:11:29.251Z,8.93
2018-12-25T13:13:57.671Z,7.62
2018-12-25T13:16:26.505Z,14.80
2018-12-25T13:18:54.947Z,10.28
2018-12-25T13:21:23.395Z,8.38
2018-12-25T13:23:52.123Z,6.90
2018-12-25T13:26:20.563Z,11.53
2018-12-25T13:28:48.971Z,7.33
2018-12-25T13:31:17.378Z,9.18
2018-12-25T13:33:45.773Z,6.20
2018-12-25T13:36:14.279Z,8.83
2018-12-25T13:38:42.672Z,8.33
2018-12-25T13:41:11.116Z,11.30
2018-12-25T13:43:39.580Z,8.10
2018-12-25T13:46:07.977Z,7.70
2018-12-25T13:48:36.949Z,7.37
2018-12-25T13:51:05.368Z,7.92
2018-12-25T13:53:34.669Z,10.88
2018-12-25T13:56:03.053Z,11.18
2018-12-25T13:58:31.817Z,9.23
2018-12-25T14:01:00.241Z,8.58
2018-12-25T14:03:28.697Z,8.75
2018-12-25T14:05:57.093Z,9.38
2018-12-25T14:08:25.537Z,9.65
2018-12-25T14:10:53.974Z,9.55
2018-12-25T14:13:22.468Z,11.57
2018-12-25T14:15:50.872Z,10.28
2018-12-25T14:18:19.392Z,10.30
2018-12-25T14:20:47.776Z,9.48
2018-12-25T14:23:16.206Z,8.03
2018-12-25T14:25:44.617Z,10.93
2018-12-25T14:28:13.020Z,9.25
2018-12-25T14:30:41.426Z,8.70
2018-12-25T14:33:09.880Z,8.50
2018-12-25T14:35:38.289Z,9.05
2018-12-25T14:38:07.006Z,9.65
2018-12-25T14:40:35.614Z,9.50
2018-12-25T14:43:04.041Z,9.25
2018-12-25T14:45:32.503Z,11.60
2018-12-25T14:48:00.964Z,10.23
2018-12-25T14:50:29.397Z,12.05
2018-12-25T14:52:57.797Z,13.32
2018-12-25T14:55:26.212Z,13.50
2018-12-25T14:57:54.606Z,12.37
2018-12-25T15:00:23.041Z,9.08
2018-12-25T15:02:51.442Z,12.15
2018-12-25T15:05:19.843Z,10.88
2018-12-25T15:07:48.321Z,15.85
2018-12-25T15:10:17.078Z,14.85
2018-12-25T15:12:45.476Z,9.35
2018-12-25T15:15:13.881Z,10.85
2018-12-25T15:17:42.284Z,9.13
2018-12-25T15:20:10.720Z,10.32
2018-12-25T15:22:40.609Z,10.10
2018-12-25T15:25:09.258Z,16.37
2018-12-25T15:27:37.675Z,15.38
2018-12-25T15:30:07.109Z,13.75
2018-12-25T15:32:35.525Z,14.50
2018-12-25T15:35:07.137Z,11.20
2018-12-25T15:37:35.659Z,12.35
2018-12-25T15:40:05.526Z,16.02
2018-12-25T15:42:34.014Z,8.80
2018-12-25T15:45:02.412Z,16.55
2018-12-25T15:47:30.841Z,13.70
2018-12-25T15:49:59.249Z,12.55
2018-12-25T15:52:27.684Z,12.30
2018-12-25T15:54:56.163Z,14.03
2018-12-25T15:57:24.569Z,15.85
2018-12-25T15:59:53.061Z,13.55
2018-12-25T16:02:21.491Z,15.55
2018-12-25T16:04:49.902Z,13.88
2018-12-25T16:07:18.353Z,17.75
2018-12-25T16:09:46.818Z,29.12
2018-12-25T16:12:15.293Z,15.60
2018-12-25T16:14:43.794Z,17.90
2018-12-25T16:17:12.204Z,11.55
2018-12-25T16:19:40.637Z,19.07
2018-12-25T16:22:09.034Z,14.70
2018-12-25T16:24:37.465Z,14.45
2018-12-25T16:27:06.846Z,12.80
2018-12-25T16:29:35.356Z,15.53
2018-12-25T16:32:03.855Z,16.12
2018-12-25T16:34:32.273Z,15.35
2018-12-25T16:37:00.684Z,16.77
2018-12-25T16:39:29.089Z,15.18
2018-12-25T16:41:57.586Z,16.48
2018-12-25T16:44:26.398Z,17.07
2018-12-25T16:46:54.862Z,13.90
2018-12-25T16:49:23.664Z,14.68
2018-12-25T16:51:52.197Z,14.78
2018-12-25T16:54:20.602Z,17.07
2018-12-25T16:56:49.066Z,20.17
2018-12-25T16:59:17.468Z,20.17
2018-12-25T17:01:45.922Z,28.47
2018-12-25T17:04:14.631Z,18.10
2018-12-25T17:06:43.323Z,16.10
2018-12-25T17:09:12.006Z,17.05
2018-12-25T17:11:40.441Z,16.75
2018-12-25T17:14:11.680Z,15.70
2018-12-25T17:16:40.421Z,17.95
2018-12-25T17:19:08.860Z,16.12
2018-12-25T17:21:37.281Z,17.25
2018-12-25T17:24:05.705Z,21.02
2018-12-25T17:26:34.141Z,22.48
2018-12-25T17:29:02.544Z,19.82
2018-12-25T17:31:30.968Z,20.92
2018-12-25T17:33:59.397Z,20.52
2018-12-25T17:36:27.838Z,20.25
2018-12-25T17:38:56.246Z,21.30
2018-12-25T17:41:24.793Z,20.65
2018-12-25T17:43:53.207Z,18.65
2018-12-25T17:46:21.642Z,19.27
2018-12-25T17:48:50.052Z,20.95
2018-12-25T17:51:18.478Z,21.95
2018-12-25T17:53:46.923Z,17.95
2018-12-25T17:56:15.764Z,25.08
2018-12-25T17:58:44.161Z,24.23
2018-12-25T18:01:12.625Z,19.30
2018-12-25T18:03:41.012Z,19.20
2018-12-25T18:06:09.433Z,19.10
2018-12-25T18:08:37.854Z,21.37
2018-12-25T18:11:06.313Z,20.37
2018-12-25T18:13:34.737Z,20.85
2018-12-25T18:16:03.217Z,21.60
2018-12-25T18:18:31.617Z,22.48
2018-12-25T18:21:00.051Z,18.25
2018-12-25T18:23:28.558Z,20.97
2018-12-25T18:25:57.422Z,20.55
2018-12-25T18:28:25.865Z,26.40
2018-12-25T18:30:54.345Z,18.60
2018-12-25T18:33:22.773Z,19.05
2018-12-25T18:35:51.208Z,22.45
2018-12-25T18:38:19.946Z,22.05
2018-12-25T18:40:48.369Z,21.00
2018-12-25T18:43:16.865Z,20.90
2018-12-25T18:45:45.327Z,18.25
2018-12-25T18:48:13.753Z,20.65
2018-12-25T18:50:42.151Z,20.32
2018-12-25T18:53:10.602Z,23.20
2018-12-25T18:55:40.231Z,22.37
2018-12-25T18:58:08.920Z,29.02
2018-12-25T19:00:37.330Z,19.20
2018-12-25T19:03:05.771Z,19.65
2018-12-25T19:05:34.176Z,21.27
2018-12-25T19:08:02.632Z,20.48
2018-12-25T19:10:31.033Z,20.43
2018-12-25T19:12:59.461Z,19.67
2018-12-25T19:15:27.897Z,19.25
2018-12-25T19:17:56.321Z,24.95
2018-12-25T19:20:24.774Z,17.77
2018-12-25T19:22:53.546Z,22.17
2018-12-25T19:25:21.952Z,25.70
2018-12-25T19:27:50.414Z,22.30
2018-12-25T19:30:21.046Z,20.85
2018-12-25T19:32:49.476Z,27.90
2018-12-25T19:35:17.873Z,27.75
2018-12-25T19:37:46.312Z,26.05
2018-12-25T19:40:14.724Z,28.35
2018-12-25T19:42:43.207Z,25.30
2018-12-25T19:45:11.639Z,24.65
2018-12-25T19:47:40.097Z,21.00
2018-12-25T19:50:08.536Z,24.07
2018-12-25T19:52:36.974Z,30.80
2018-12-25T19:55:06.761Z,24.45
2018-12-25T19:57:35.277Z,24.87
2018-12-25T20:00:05.061Z,26.57
2018-12-25T20:02:33.863Z,20.08
2018-12-25T20:05:24.244Z,25.88
2018-12-25T20:08:20.348Z,25.45
2018-12-25T20:11:27.069Z,25.72
2018-12-25T20:13:58.630Z,27.02
2018-12-25T20:16:51.321Z,23.50
2018-12-25T20:19:29.050Z,26.68
2018-12-25T20:22:06.441Z,29.35
2018-12-25T20:24:53.091Z,20.80
2018-12-25T20:27:41.215Z,22.45
2018-12-25T20:30:29.523Z,21.68
2018-12-25T20:33:18.988Z,26.20
2018-12-25T20:36:12.927Z,18.50
2018-12-25T20:38:56.665Z,26.95
2018-12-25T20:41:28.163Z,25.62
2018-12-25T20:44:25.466Z,25.95
2018-12-25T20:47:25.581Z,27.75
2018-12-25T20:50:13.805Z,28.77
2018-12-25T20:53:00.629Z,24.50
2018-12-25T20:55:53.478Z,27.25
2018-12-25T20:58:45.575Z,31.85
2018-12-25T21:01:22.996Z,28.85
2018-12-25T21:04:03.361Z,25.40
2018-12-25T21:06:34.843Z,30.82
2018-12-25T21:09:18.354Z,31.30
2018-12-25T21:12:01.410Z,25.57
2018-12-25T21:14:33.179Z,27.60
2018-12-25T21:17:31.535Z,26.60
2018-12-25T21:20:20.654Z,29.80
2018-12-25T21:23:25.561Z,30.25
2018-12-25T21:26:30.612Z,24.45
2018-12-25T21:28:59.046Z,29.52
2018-12-25T21:31:27.494Z,36.65
2018-12-25T21:33:56.037Z,30.95
2018-12-25T21:36:24.569Z,28.52
2018-12-25T21:38:52.966Z,28.25
2018-12-25T21:41:22.052Z,25.02
2018-12-25T21:43:51.824Z,30.43
2018-12-25T21:46:20.448Z,31.77
2018-12-25T21:48:48.920Z,29.70
2018-12-25T21:51:17.899Z,28.70
2018-12-25T21:53:46.790Z,28.12
2018-12-25T21:56:15.617Z,22.87
2018-12-25T21:58:44.084Z,31.48
2018-12-25T22:01:12.972Z,24.65
2018-12-25T22:03:41.377Z,30.88
2018-12-25T22:06:09.821Z,35.48
2018-12-25T22:08:38.221Z,34.40
2018-12-25T22:11:06.655Z,40.10
2018-12-25T22:13:35.054Z,37.30
2018-12-25T22:16:03.547Z,38.48
2018-12-25T22:18:32.009Z,31.73
2018-12-25T22:21:00.471Z,33.75
2018-12-25T22:23:29.180Z,28.17
2018-12-25T22:25:58.007Z,29.40
2018-12-25T22:28:26.979Z,25.05
2018-12-25T22:30:55.406Z,30.45
2018-12-25T22:33:23.813Z,28.87
2018-12-25T22:35:53.216Z,24.57
2018-12-25T22:38:21.909Z,34.33
2018-12-25T22:40:50.382Z,28.32
2018-12-25T22:43:18.782Z,29.48
2018-12-25T22:45:47.214Z,25.10
2018-12-25T22:48:15.619Z,27.80
2018-12-25T22:50:44.134Z,27.15
2018-12-25T22:53:12.922Z,32.88
2018-12-25T22:55:41.335Z,34.10
2018-12-25T22:58:09.777Z,30.82
2018-12-25T23:00:38.273Z,26.35
2018-12-25T23:03:06.725Z,28.40
2018-12-25T23:05:35.133Z,27.05
2018-12-25T23:08:03.578Z,23.90
2018-12-25T23:10:32.017Z,29.77
2018-12-25T23:13:00.765Z,30.40
2018-12-25T23:15:29.164Z,33.30
2018-12-25T23:17:57.641Z,29.27
2018-12-25T23:20:28.839Z,27.70
2018-12-25T23:22:56.216Z,34.15
2018-12-25T23:25:24.624Z,28.50
2018-12-25T23:27:53.081Z,34.85
2018-12-25T23:30:21.476Z,29.52
2018-12-25T23:32:49.925Z,31.93
2018-12-25T23:35:18.682Z,31.85
2018-12-25T23:37:47.141Z,36.98
2018-12-25T23:40:15.536Z,36.42
2018-12-25T23:42:43.967Z,34.98
2018-12-25T23:45:12.405Z,33.50
2018-12-25T23:47:40.828Z,37.83
2018-12-25T23:50:09.230Z,29.72
2018-12-25T23:52:37.657Z,31.23
2018-12-25T23:55:06.069Z,31.12
2018-12-25T23:57:34.521Z,36.85
